This is the latest recevied weather packets stored in our database for station/object KD7ECD. If no packets are shown the sender has not sent any weather packets the latest 10 day(s).
| Time | Temp. | Humidity | Pressure | Rain* | Wind** | Luminosity | Snow |
|---|---|---|---|---|---|---|---|
| 1777326819 | 17.22° C | 53% | 1019.3 hPa | 0 mm | - | 799 W/m² | - |
| 1777326214 | 17.78° C | 55% | 1019.2 hPa | 0 mm | - | 813 W/m² | - |
| 1777325610 | 17.22° C | 53% | 1019.3 hPa | 0 mm | - | 852 W/m² | - |
| 1777325006 | 17.22° C | 54% | 1019.3 hPa | 0 mm | - | 848 W/m² | - |
| 1777324405 | 16.11° C | 57% | 1019.2 hPa | 0 mm | - | 874 W/m² | - |
| 1777323801 | 15.56° C | 60% | 1019.3 hPa | 0 mm | - | 241 W/m² | - |
| 1777323200 | 16.11° C | 60% | 1019.2 hPa | 0 mm | - | 280 W/m² | - |
| 1777322596 | 16.11° C | 57% | 1019.3 hPa | 0 mm | - | 287 W/m² | - |
| 1777321995 | 16.67° C | 58% | 1019.4 hPa | 0 mm | - | 923 W/m² | - |
| 1777321393 | 16.11° C | 59% | 1019.4 hPa | 0 mm | - | 737 W/m² | - |
| 1777320788 | 15° C | 64% | 1019.4 hPa | 0 mm | - | 216 W/m² | - |
| 1777320188 | 15° C | 62% | 1019.4 hPa | 0 mm | - | 212 W/m² | - |
| 1777319588 | 16.67° C | 59% | 1019.6 hPa | 0 mm | - | 963 W/m² | - |
| 1777318987 | 15.56° C | 62% | 1019.6 hPa | 0 mm | - | 936 W/m² | - |
| 1777318385 | 14.44° C | 66% | 1019.8 hPa | 0 mm | - | 937 W/m² | - |
| 1777317785 | 15° C | 65% | 1019.9 hPa | 0 mm | - | 181 W/m² | - |
| 1777317185 | 15.56° C | 60% | 1019.8 hPa | 0 mm | - | 246 W/m² | - |
| 1777316583 | 15° C | 62% | 1019.7 hPa | 0 mm | - | 734 W/m² | - |
| 1777315983 | 13.89° C | 64% | 1019.9 hPa | 0 mm | - | 374 W/m² | - |
| 1777315379 | 13.33° C | 71% | 1019.8 hPa | 0 mm | - | 342 W/m² | - |
| 1777314777 | 13.89° C | 70% | 1019.8 hPa | 0 mm | - | 258 W/m² | - |
| 1777314177 | 13.89° C | 70% | 1019.5 hPa | 0 mm | - | 269 W/m² | - |
| 1777313572 | 14.44° C | 67% | 1019.4 hPa | 0 mm | - | 413 W/m² | - |
| 1777312971 | 14.44° C | 68% | 1019.6 hPa | 0 mm | - | 1116 W/m² | - |
| 1777312371 | 13.89° C | 72% | 1019.9 hPa | 0 mm | - | 1088 W/m² | - |
* Rain latest hour (hover to see other rain measurements)
** Current wind speed in m/s (hover to see current wind gust speed)